Time;durP1;ratioP1;P1;durP2;ratioP2;P2;SDS_P1;SDS_P2;PMS_P1;PMS_P2;Temp;Humidity;BMP_temperature;BMP_pressure;BME280_temperature;BME280_humidity;BME280_pressure;Samples;Min_cycle;Max_cycle;Signal;HPM_P1;HPM_P2
2023/12/11 00:04:09;;;;;;;4.87;1.73;;;;;;;;;;10345366;28;20466;-73
2023/12/11 00:09:10;;;;;;;3.30;1.47;;;;;;;;;;10351313;28;20702;-73
2023/12/11 00:14:10;;;;;;;3.13;1.60;;;;;;;;;;10350621;28;20209;-73
2023/12/11 00:19:11;;;;;;;4.43;1.60;;;;;;;;;;10350893;28;20213;-73
2023/12/11 00:24:14;;;;;;;2.53;1.27;;;;;;;;;;10350258;28;20189;-73
2023/12/11 00:29:15;;;;;;;4.27;1.73;;;;;;;;;;10347943;28;20237;-73
2023/12/11 00:34:16;;;;;;;1.43;0.90;;;;;;;;;;10349642;28;20189;-73
2023/12/11 00:39:16;;;;;;;3.97;1.37;;;;;;;;;;10349501;28;20213;-73
2023/12/11 00:44:16;;;;;;;2.83;1.13;;;;;;;;;;10349596;28;20722;-73
2023/12/11 00:49:16;;;;;;;0.70;0.70;;;;;;;;;;10349529;28;20197;-72
2023/12/11 00:54:17;;;;;;;4.70;1.10;;;;;;;;;;10350277;28;20193;-71
2023/12/11 00:59:20;;;;;;;2.00;1.00;;;;;;;;;;10350933;28;20643;-72
2023/12/11 01:04:20;;;;;;;3.67;1.30;;;;;;;;;;10352060;28;20337;-72
2023/12/11 01:09:20;;;;;;;7.80;1.50;;;;;;;;;;10351767;28;20197;-72
2023/12/11 01:14:21;;;;;;;6.17;1.30;;;;;;;;;;10351908;28;20448;-73
2023/12/11 01:19:21;;;;;;;3.53;1.53;;;;;;;;;;10350748;28;20225;-73
2023/12/11 01:24:21;;;;;;;3.47;0.90;;;;;;;;;;10350323;28;20332;-73
2023/12/11 01:29:21;;;;;;;5.90;1.60;;;;;;;;;;10350651;28;20484;-73
2023/12/11 01:34:22;;;;;;;6.13;1.30;;;;;;;;;;10350492;28;20241;-73
2023/12/11 01:39:22;;;;;;;3.80;1.10;;;;;;;;;;10351180;28;20589;-72
2023/12/11 01:44:23;;;;;;;3.17;1.00;;;;;;;;;;10350937;28;20181;-72
2023/12/11 01:49:23;;;;;;;3.37;1.10;;;;;;;;;;10350732;28;20220;-72
2023/12/11 01:54:24;;;;;;;2.07;1.03;;;;;;;;;;10352747;28;20189;-73
2023/12/11 01:59:24;;;;;;;2.20;1.03;;;;;;;;;;10349378;28;20224;-73
2023/12/11 02:04:24;;;;;;;3.30;1.23;;;;;;;;;;10348614;28;20626;-73
2023/12/11 02:09:28;;;;;;;3.07;1.20;;;;;;;;;;10353257;28;20240;-73
2023/12/11 02:14:28;;;;;;;4.17;0.90;;;;;;;;;;10352314;28;20201;-74
2023/12/11 02:19:29;;;;;;;1.83;1.03;;;;;;;;;;10350081;28;20211;-73
2023/12/11 02:24:32;;;;;;;4.00;1.10;;;;;;;;;;10356656;28;20205;-73
2023/12/11 02:29:32;;;;;;;4.63;1.67;;;;;;;;;;10354134;28;20237;-73
2023/12/11 02:34:33;;;;;;;3.27;1.20;;;;;;;;;;10353904;28;20194;-73
2023/12/11 02:39:33;;;;;;;3.87;1.30;;;;;;;;;;10354753;28;20473;-73
2023/12/11 02:44:36;;;;;;;2.60;1.13;;;;;;;;;;10353439;28;20667;-74
2023/12/11 02:49:36;;;;;;;2.93;1.00;;;;;;;;;;10347285;28;20193;-73
2023/12/11 02:54:40;;;;;;;2.87;1.00;;;;;;;;;;10353773;28;20483;-73
2023/12/11 02:59:40;;;;;;;6.23;1.60;;;;;;;;;;10354271;28;20214;-73
2023/12/11 03:04:40;;;;;;;2.40;1.13;;;;;;;;;;10352939;28;20211;-74
2023/12/11 03:09:41;;;;;;;4.17;1.00;;;;;;;;;;10353757;28;20206;-73
2023/12/11 03:14:41;;;;;;;7.43;1.23;;;;;;;;;;10352991;28;20193;-73
2023/12/11 03:19:42;;;;;;;4.10;1.20;;;;;;;;;;10352509;28;20214;-73
2023/12/11 03:24:42;;;;;;;4.20;1.10;;;;;;;;;;10351719;28;20217;-73
2023/12/11 03:29:45;;;;;;;4.90;1.43;;;;;;;;;;10352476;28;20220;-73
2023/12/11 03:34:45;;;;;;;3.07;1.03;;;;;;;;;;10350993;28;20187;-74
2023/12/11 03:39:45;;;;;;;5.67;2.23;;;;;;;;;;10351755;28;20646;-73
2023/12/11 03:44:46;;;;;;;4.73;2.13;;;;;;;;;;10351030;28;20635;-73
2023/12/11 03:49:46;;;;;;;9.63;2.57;;;;;;;;;;10351710;28;20186;-72
2023/12/11 03:54:46;;;;;;;4.53;1.27;;;;;;;;;;10350889;28;20190;-73
2023/12/11 03:59:47;;;;;;;3.30;1.37;;;;;;;;;;10349879;28;20209;-72
2023/12/11 04:04:47;;;;;;;3.53;1.50;;;;;;;;;;10362163;28;20800;-72
2023/12/11 04:09:50;;;;;;;6.20;1.30;;;;;;;;;;10355621;28;20188;-72
2023/12/11 04:14:50;;;;;;;2.63;1.30;;;;;;;;;;10360870;28;20444;-72
2023/12/11 04:19:51;;;;;;;4.80;1.43;;;;;;;;;;10361123;28;20213;-72
2023/12/11 04:24:51;;;;;;;5.23;1.33;;;;;;;;;;10359970;28;20555;-73
2023/12/11 04:29:51;;;;;;;6.73;1.60;;;;;;;;;;10360292;28;20797;-73
2023/12/11 04:34:52;;;;;;;7.83;1.63;;;;;;;;;;10360121;28;20190;-73
2023/12/11 04:39:52;;;;;;;2.60;1.33;;;;;;;;;;10360266;28;20819;-73
2023/12/11 04:44:52;;;;;;;3.67;1.27;;;;;;;;;;10359577;28;20184;-73
2023/12/11 04:49:52;;;;;;;4.27;1.37;;;;;;;;;;10358757;28;20837;-73
2023/12/11 04:54:52;;;;;;;6.40;1.50;;;;;;;;;;10360094;28;20194;-73
2023/12/11 04:59:53;;;;;;;6.10;1.73;;;;;;;;;;10359898;28;20762;-73
2023/12/11 05:04:53;;;;;;;7.63;1.37;;;;;;;;;;10342046;28;20555;-72
2023/12/11 05:09:53;;;;;;;3.07;1.23;;;;;;;;;;10360255;28;20196;-73
2023/12/11 05:14:53;;;;;;;10.47;1.50;;;;;;;;;;10359575;28;20643;-73
2023/12/11 05:19:54;;;;;;;6.53;1.60;;;;;;;;;;10359367;28;20224;-73
2023/12/11 05:24:54;;;;;;;6.57;1.33;;;;;;;;;;10358795;28;20233;-73
2023/12/11 05:29:54;;;;;;;2.13;1.30;;;;;;;;;;10359221;28;20192;-73
2023/12/11 05:34:54;;;;;;;6.90;1.30;;;;;;;;;;10359056;28;20671;-73
2023/12/11 05:39:55;;;;;;;6.53;1.10;;;;;;;;;;10359401;28;20618;-73
2023/12/11 05:44:55;;;;;;;6.13;1.40;;;;;;;;;;10358531;28;20444;-73
2023/12/11 05:49:55;;;;;;;6.07;1.30;;;;;;;;;;10359317;28;20658;-73
2023/12/11 05:54:55;;;;;;;4.80;1.20;;;;;;;;;;10360346;28;20189;-73
2023/12/11 05:59:56;;;;;;;7.50;1.60;;;;;;;;;;10367247;28;20209;-72
2023/12/11 06:04:56;;;;;;;7.10;1.67;;;;;;;;;;10365090;28;20677;-72
2023/12/11 06:09:56;;;;;;;3.87;1.23;;;;;;;;;;10365905;28;20448;-72
2023/12/11 06:14:56;;;;;;;7.77;1.57;;;;;;;;;;10366547;28;20204;-72
2023/12/11 06:19:57;;;;;;;5.43;1.40;;;;;;;;;;10366560;28;20217;-73
2023/12/11 06:24:57;;;;;;;12.07;6.87;;;;;;;;;;10365121;28;20234;-73
2023/12/11 06:29:57;;;;;;;7.53;1.97;;;;;;;;;;10366682;28;20663;-72
2023/12/11 06:34:57;;;;;;;2.93;1.60;;;;;;;;;;10364110;28;20197;-72
2023/12/11 06:39:58;;;;;;;5.43;3.53;;;;;;;;;;10375441;28;20221;-72
2023/12/11 06:44:59;;;;;;;8.87;1.60;;;;;;;;;;10364799;28;20192;-73
2023/12/11 06:49:59;;;;;;;17.50;2.30;;;;;;;;;;10380323;28;20207;-74
2023/12/11 06:54:59;;;;;;;7.90;1.90;;;;;;;;;;10364913;28;20197;-73
2023/12/11 07:00:02;;;;;;;10.23;2.37;;;;;;;;;;10364729;28;20307;-73
2023/12/11 07:05:02;;;;;;;7.47;1.77;;;;;;;;;;10363881;28;20515;-73
2023/12/11 07:10:05;;;;;;;6.70;1.88;;;;;;;;;;10362310;28;20328;-73
2023/12/11 07:15:05;;;;;;;2.33;1.30;;;;;;;;;;10362133;28;20560;-73
2023/12/11 07:20:06;;;;;;;6.77;1.67;;;;;;;;;;10341514;28;20221;-73
2023/12/11 07:25:06;;;;;;;4.50;1.53;;;;;;;;;;10362751;28;20244;-73
2023/12/11 07:30:07;;;;;;;6.40;1.50;;;;;;;;;;10364353;28;20204;-73
2023/12/11 07:35:08;;;;;;;9.90;4.37;;;;;;;;;;10345118;28;20705;-73
2023/12/11 07:40:09;;;;;;;5.83;2.50;;;;;;;;;;10363252;28;20308;-73
2023/12/11 07:45:10;;;;;;;5.87;1.80;;;;;;;;;;10362828;28;20632;-72
2023/12/11 07:50:10;;;;;;;14.30;2.60;;;;;;;;;;10362591;28;20809;-72
2023/12/11 07:55:11;;;;;;;11.90;3.60;;;;;;;;;;10362656;28;20204;-73
2023/12/11 08:00:11;;;;;;;15.10;5.07;;;;;;;;;;10355941;28;20232;-73
2023/12/11 08:05:11;;;;;;;5.47;1.83;;;;;;;;;;10348704;28;20667;-73
2023/12/11 08:10:12;;;;;;;7.03;1.47;;;;;;;;;;10360587;28;20212;-73
2023/12/11 08:15:12;;;;;;;3.37;1.10;;;;;;;;;;10355600;28;20205;-72
2023/12/11 08:20:16;;;;;;;5.60;1.30;;;;;;;;;;10358693;28;20475;-72
2023/12/11 08:25:17;;;;;;;8.53;1.70;;;;;;;;;;10359634;28;20587;-72
2023/12/11 08:30:18;;;;;;;9.40;2.40;;;;;;;;;;10357302;28;20201;-72
2023/12/11 08:35:18;;;;;;;5.30;1.60;;;;;;;;;;10356677;28;20209;-73
2023/12/11 08:40:20;;;;;;;7.37;1.47;;;;;;;;;;10339329;28;20722;-73
2023/12/11 08:45:20;;;;;;;9.10;1.60;;;;;;;;;;10335788;28;20703;-73
2023/12/11 08:50:21;;;;;;;8.33;1.83;;;;;;;;;;10338679;28;20205;-72
2023/12/11 08:55:21;;;;;;;3.90;1.23;;;;;;;;;;10336474;28;20722;-72
2023/12/11 09:00:21;;;;;;;6.47;2.13;;;;;;;;;;10358306;28;20225;-72
2023/12/11 09:05:21;;;;;;;6.07;1.43;;;;;;;;;;10360806;28;20209;-73
2023/12/11 09:10:22;;;;;;;6.00;1.70;;;;;;;;;;10357591;28;20727;-72
2023/12/11 09:15:22;;;;;;;7.70;1.87;;;;;;;;;;10359885;28;20197;-72
2023/12/11 09:20:22;;;;;;;6.90;1.87;;;;;;;;;;10358427;28;20256;-72
2023/12/11 09:25:23;;;;;;;6.57;1.47;;;;;;;;;;10359726;28;20232;-72
2023/12/11 09:30:23;;;;;;;8.50;1.60;;;;;;;;;;10357995;28;20670;-72
2023/12/11 09:35:23;;;;;;;7.63;1.90;;;;;;;;;;10357908;28;20897;-72
2023/12/11 09:40:23;;;;;;;5.93;1.90;;;;;;;;;;10353774;28;20488;-72
2023/12/11 09:45:24;;;;;;;5.23;1.50;;;;;;;;;;10357662;28;20300;-71
2023/12/11 09:50:24;;;;;;;7.30;1.70;;;;;;;;;;10358096;28;20609;-72
2023/12/11 09:55:25;;;;;;;4.37;1.70;;;;;;;;;;10357599;28;20228;-72
2023/12/11 10:00:26;;;;;;;6.00;1.07;;;;;;;;;;10358189;28;20216;-72
2023/12/11 10:05:26;;;;;;;9.40;1.87;;;;;;;;;;10356642;28;20193;-72
2023/12/11 10:16:31;;;;;;;3.57;1.03;;;;;;;;;;10329116;28;20425;-72
2023/12/11 10:21:41;;;;;;;5.60;1.30;;;;;;;;;;10331290;28;20638;-72
2023/12/11 10:26:52;;;;;;;4.57;1.60;;;;;;;;;;10330646;28;20228;-72
2023/12/11 10:32:00;;;;;;;3.73;1.20;;;;;;;;;;10348410;28;20513;-72
2023/12/11 10:37:01;;;;;;;4.90;1.40;;;;;;;;;;10356836;28;20210;-72
2023/12/11 10:42:14;;;;;;;3.97;1.57;;;;;;;;;;10355140;28;20229;-72
2023/12/11 10:47:14;;;;;;;9.10;2.00;;;;;;;;;;10358261;28;20193;-72
2023/12/11 10:52:15;;;;;;;2.77;1.10;;;;;;;;;;10361779;28;20682;-72
2023/12/11 10:57:16;;;;;;;3.03;1.10;;;;;;;;;;10365905;28;20205;-72
2023/12/11 11:02:17;;;;;;;3.70;1.07;;;;;;;;;;10365909;28;20275;-72
2023/12/11 11:07:35;;;;;;;3.67;1.00;;;;;;;;;;10365341;28;20193;-72
2023/12/11 11:12:53;;;;;;;5.03;1.33;;;;;;;;;;10363345;28;20328;-73
2023/12/11 11:23:48;;;;;;;3.43;1.17;;;;;;;;;;10357094;28;20226;-74
2023/12/11 11:28:50;;;;;;;2.83;1.47;;;;;;;;;;10362212;28;20585;-74
2023/12/11 11:33:52;;;;;;;3.37;1.37;;;;;;;;;;10362365;28;20190;-73
2023/12/11 11:38:52;;;;;;;5.73;1.30;;;;;;;;;;10362896;28;20201;-73
2023/12/11 11:43:55;;;;;;;2.70;1.10;;;;;;;;;;10359509;28;20473;-74
2023/12/11 11:48:55;;;;;;;3.83;1.10;;;;;;;;;;10338256;28;20200;-73
2023/12/11 11:53:59;;;;;;;4.53;1.33;;;;;;;;;;10333518;28;20265;-74
2023/12/11 11:59:02;;;;;;;4.87;1.40;;;;;;;;;;10350301;28;20193;-74
2023/12/11 12:04:03;;;;;;;5.63;1.23;;;;;;;;;;10361133;28;20181;-73
2023/12/11 12:09:04;;;;;;;2.43;1.30;;;;;;;;;;10362319;28;20666;-73
2023/12/11 12:14:10;;;;;;;7.90;1.20;;;;;;;;;;10360243;28;20209;-73
2023/12/11 12:19:10;;;;;;;3.37;1.03;;;;;;;;;;10359131;28;20260;-74
2023/12/11 12:24:11;;;;;;;1.90;1.20;;;;;;;;;;10361046;28;20193;-73
2023/12/11 12:29:11;;;;;;;2.63;1.63;;;;;;;;;;10360021;28;20241;-73
2023/12/11 12:34:13;;;;;;;13.70;8.17;;;;;;;;;;10350322;28;20256;-73
2023/12/11 12:39:17;;;;;;;3.67;1.33;;;;;;;;;;10361410;28;20260;-74
2023/12/11 12:44:20;;;;;;;2.27;1.17;;;;;;;;;;10358515;28;20742;-73
2023/12/11 12:49:20;;;;;;;3.23;1.30;;;;;;;;;;10356365;28;20281;-73
2023/12/11 12:54:23;;;;;;;5.40;1.33;;;;;;;;;;10354541;28;20300;-74
2023/12/11 12:59:24;;;;;;;2.20;1.23;;;;;;;;;;10359097;28;20511;-73
2023/12/11 13:04:25;;;;;;;1.73;1.10;;;;;;;;;;10358410;28;20217;-73
2023/12/11 13:09:29;;;;;;;3.23;1.20;;;;;;;;;;10359615;28;20630;-74
2023/12/11 13:14:29;;;;;;;3.67;1.33;;;;;;;;;;10359112;28;20193;-73
2023/12/11 13:19:29;;;;;;;10.83;5.30;;;;;;;;;;10358428;28;20220;-73
2023/12/11 13:24:29;;;;;;;4.33;1.70;;;;;;;;;;10354410;28;20444;-73
2023/12/11 13:29:30;;;;;;;5.30;1.20;;;;;;;;;;10358492;28;20240;-73
2023/12/11 13:34:30;;;;;;;3.63;1.03;;;;;;;;;;10358353;28;20197;-74
2023/12/11 13:45:34;;;;;;;4.53;1.50;;;;;;;;;;10324272;28;20185;-74
2023/12/11 13:50:35;;;;;;;7.43;1.57;;;;;;;;;;10338033;28;20193;-73
2023/12/11 13:55:35;;;;;;;2.73;1.13;;;;;;;;;;10334764;28;20193;-73
2023/12/11 14:00:35;;;;;;;4.13;2.20;;;;;;;;;;10340036;28;20715;-74
2023/12/11 14:05:36;;;;;;;7.30;2.10;;;;;;;;;;10350881;28;20201;-73
2023/12/11 14:10:37;;;;;;;7.83;1.80;;;;;;;;;;10356035;28;20193;-73
2023/12/11 14:15:37;;;;;;;6.60;1.43;;;;;;;;;;10358440;28;20661;-73
2023/12/11 14:20:38;;;;;;;5.90;1.53;;;;;;;;;;10364465;28;20221;-72
2023/12/11 14:25:38;;;;;;;6.30;1.30;;;;;;;;;;10364492;28;21115;-73
2023/12/11 14:30:38;;;;;;;11.27;3.73;;;;;;;;;;10361064;28;20292;-73
2023/12/11 14:35:38;;;;;;;4.50;2.00;;;;;;;;;;10364153;28;20602;-73
2023/12/11 14:40:38;;;;;;;8.43;3.90;;;;;;;;;;10363676;28;20320;-73
2023/12/11 14:45:39;;;;;;;4.90;1.40;;;;;;;;;;10363884;28;20280;-73
2023/12/11 14:50:39;;;;;;;6.00;2.13;;;;;;;;;;10366133;28;20197;-73
2023/12/11 14:55:39;;;;;;;7.27;2.07;;;;;;;;;;10363179;28;20185;-73
2023/12/11 15:00:52;;;;;;;6.23;1.60;;;;;;;;;;10360194;28;20227;-73
2023/12/11 15:05:53;;;;;;;7.17;1.80;;;;;;;;;;10357250;28;20295;-73
2023/12/11 15:10:53;;;;;;;2.23;1.30;;;;;;;;;;10331700;28;20301;-73
2023/12/11 15:15:53;;;;;;;6.43;1.80;;;;;;;;;;10339659;28;20457;-73
2023/12/11 15:20:55;;;;;;;5.67;1.93;;;;;;;;;;10333816;28;20214;-73
2023/12/11 15:25:56;;;;;;;8.20;2.07;;;;;;;;;;10343671;28;20230;-73
2023/12/11 15:30:57;;;;;;;5.47;1.67;;;;;;;;;;10362491;28;20508;-73
2023/12/11 15:35:57;;;;;;;7.40;1.70;;;;;;;;;;10367332;28;20178;-73
2023/12/11 15:40:57;;;;;;;5.87;1.77;;;;;;;;;;10366137;28;20483;-73
2023/12/11 15:45:58;;;;;;;10.63;2.00;;;;;;;;;;10365283;28;20196;-73
2023/12/11 15:50:58;;;;;;;5.20;1.63;;;;;;;;;;10357436;28;20212;-73
2023/12/11 15:55:58;;;;;;;4.70;1.43;;;;;;;;;;10360632;28;20200;-73
2023/12/11 16:00:58;;;;;;;5.20;1.43;;;;;;;;;;10363892;28;20606;-74
2023/12/11 16:05:59;;;;;;;6.30;1.93;;;;;;;;;;10356916;28;20545;-73
2023/12/11 16:11:00;;;;;;;4.33;1.57;;;;;;;;;;10357849;28;20189;-73
2023/12/11 16:16:00;;;;;;;5.07;1.70;;;;;;;;;;10361384;28;20227;-74
2023/12/11 16:21:00;;;;;;;6.53;1.60;;;;;;;;;;10362429;28;20761;-71
2023/12/11 16:26:00;;;;;;;4.37;1.83;;;;;;;;;;10356649;28;20237;-72
2023/12/11 16:31:01;;;;;;;5.97;1.83;;;;;;;;;;10350248;28;20205;-73
2023/12/11 16:36:02;;;;;;;7.40;1.80;;;;;;;;;;10353141;28;20678;-73
2023/12/11 16:41:11;;;;;;;3.90;1.70;;;;;;;;;;10348452;28;20225;-72
2023/12/11 16:46:11;;;;;;;5.40;1.70;;;;;;;;;;10352705;28;20325;-73
2023/12/11 16:51:11;;;;;;;5.90;1.90;;;;;;;;;;10346027;28;20224;-73
2023/12/11 16:56:12;;;;;;;6.60;2.17;;;;;;;;;;10360746;28;20193;-73
2023/12/11 17:01:13;;;;;;;6.67;1.50;;;;;;;;;;10350573;28;20463;-73
2023/12/11 17:06:14;;;;;;;7.97;4.07;;;;;;;;;;10352815;28;20185;-73
2023/12/11 17:12:07;;;;;;;4.87;2.13;;;;;;;;;;10356774;28;20204;-73
2023/12/11 17:17:01;;;;;;;7.07;2.63;;;;;;;;;;10355298;28;20209;-74
2023/12/11 17:22:02;;;;;;;7.03;2.53;;;;;;;;;;10362113;28;20229;-73
2023/12/11 17:27:05;;;;;;;4.13;1.80;;;;;;;;;;10361519;28;20268;-73
2023/12/11 17:32:05;;;;;;;3.13;1.43;;;;;;;;;;10343935;28;20700;-73
2023/12/11 17:37:06;;;;;;;3.40;1.20;;;;;;;;;;10347962;28;20311;-72
2023/12/11 17:42:06;;;;;;;7.17;1.93;;;;;;;;;;10344016;28;20640;-72
2023/12/11 17:47:06;;;;;;;3.17;1.67;;;;;;;;;;10357908;28;20185;-72
2023/12/11 17:52:08;;;;;;;8.07;2.50;;;;;;;;;;10356430;28;20238;-72
2023/12/11 17:57:09;;;;;;;8.93;3.13;;;;;;;;;;10363745;28;20742;-72
2023/12/11 18:02:10;;;;;;;3.13;2.20;;;;;;;;;;10363732;28;20653;-73
2023/12/11 18:07:10;;;;;;;5.27;1.53;;;;;;;;;;10365495;28;20199;-72
2023/12/11 18:12:11;;;;;;;5.50;1.47;;;;;;;;;;10360389;28;20193;-73
2023/12/11 18:17:13;;;;;;;7.60;2.43;;;;;;;;;;10361218;28;20198;-72
2023/12/11 18:22:13;;;;;;;4.57;2.33;;;;;;;;;;10346313;28;20826;-73
2023/12/11 18:27:13;;;;;;;5.47;1.97;;;;;;;;;;10360426;28;20320;-72
2023/12/11 18:32:14;;;;;;;5.47;2.53;;;;;;;;;;10359419;28;20640;-72
2023/12/11 18:37:15;;;;;;;8.03;2.50;;;;;;;;;;10353179;28;20193;-73
2023/12/11 18:42:15;;;;;;;4.20;1.80;;;;;;;;;;10360006;28;20464;-73
2023/12/11 18:47:15;;;;;;;6.93;3.13;;;;;;;;;;10358594;28;20190;-73
2023/12/11 18:52:17;;;;;;;3.00;1.70;;;;;;;;;;10359651;28;20208;-73
2023/12/11 18:57:17;;;;;;;3.90;2.10;;;;;;;;;;10346167;28;20192;-72
2023/12/11 19:02:17;;;;;;;2.77;1.93;;;;;;;;;;10349913;28;20702;-72
2023/12/11 19:07:17;;;;;;;2.97;1.60;;;;;;;;;;10350713;28;20196;-73
2023/12/11 19:12:18;;;;;;;2.57;2.00;;;;;;;;;;10349734;28;20452;-73
2023/12/11 19:17:18;;;;;;;3.73;1.87;;;;;;;;;;10339307;28;20225;-73
2023/12/11 19:22:18;;;;;;;3.23;1.90;;;;;;;;;;10353079;28;20294;-73
2023/12/11 19:27:20;;;;;;;6.30;2.00;;;;;;;;;;10349193;28;20225;-73
2023/12/11 19:32:21;;;;;;;4.07;1.67;;;;;;;;;;10340986;28;20195;-73
2023/12/11 19:37:21;;;;;;;1.77;1.60;;;;;;;;;;10350272;28;20667;-72
2023/12/11 19:42:21;;;;;;;1.93;1.60;;;;;;;;;;10362419;28;20223;-73
2023/12/11 19:47:22;;;;;;;4.10;1.60;;;;;;;;;;10358131;28;20204;-72
2023/12/11 19:52:22;;;;;;;11.60;4.30;;;;;;;;;;10361589;28;20198;-73
2023/12/11 19:57:22;;;;;;;6.70;2.50;;;;;;;;;;10361124;28;20181;-73
2023/12/11 20:02:22;;;;;;;4.30;1.83;;;;;;;;;;10342198;28;20218;-73
2023/12/11 20:07:24;;;;;;;4.70;2.07;;;;;;;;;;10347982;28;20189;-73
2023/12/11 20:12:24;;;;;;;4.27;2.10;;;;;;;;;;10361273;28;20675;-72
2023/12/11 20:17:24;;;;;;;3.93;2.50;;;;;;;;;;10360777;28;20199;-73
2023/12/11 20:22:25;;;;;;;3.90;2.60;;;;;;;;;;10361743;28;20303;-72
2023/12/11 20:27:25;;;;;;;5.57;2.47;;;;;;;;;;10359975;28;20713;-72
2023/12/11 20:32:25;;;;;;;7.77;2.70;;;;;;;;;;10359606;28;20220;-73
2023/12/11 20:37:26;;;;;;;4.43;2.00;;;;;;;;;;10359185;28;20562;-73
2023/12/11 20:42:26;;;;;;;4.23;2.20;;;;;;;;;;10354100;28;20762;-73
2023/12/11 20:47:26;;;;;;;5.53;2.00;;;;;;;;;;10359607;28;20190;-73
2023/12/11 20:52:26;;;;;;;2.53;1.90;;;;;;;;;;10359219;28;20201;-73
2023/12/11 20:57:28;;;;;;;4.50;2.00;;;;;;;;;;10359145;28;20193;-72
2023/12/11 21:02:29;;;;;;;5.63;2.20;;;;;;;;;;10359781;28;20213;-72
2023/12/11 21:07:29;;;;;;;3.73;2.10;;;;;;;;;;10359815;28;20697;-73
2023/12/11 21:12:30;;;;;;;6.23;2.47;;;;;;;;;;10358648;28;20204;-73
2023/12/11 21:17:30;;;;;;;2.77;1.87;;;;;;;;;;10356849;28;20185;-73
2023/12/11 21:22:30;;;;;;;3.13;2.10;;;;;;;;;;10355222;28;20276;-72
2023/12/11 21:27:30;;;;;;;3.70;2.00;;;;;;;;;;10345932;28;20328;-72
2023/12/11 21:32:32;;;;;;;3.77;1.93;;;;;;;;;;10359860;28;20283;-73
2023/12/11 21:37:32;;;;;;;4.10;2.60;;;;;;;;;;10358749;28;20589;-73
2023/12/11 21:42:32;;;;;;;4.27;2.97;;;;;;;;;;10359830;28;20227;-72
2023/12/11 21:47:33;;;;;;;5.20;2.47;;;;;;;;;;10360917;28;20263;-71
2023/12/11 21:52:33;;;;;;;3.47;2.23;;;;;;;;;;10362010;28;20202;-72
2023/12/11 21:57:33;;;;;;;4.17;2.30;;;;;;;;;;10362390;28;20182;-72
2023/12/11 22:02:34;;;;;;;3.30;2.47;;;;;;;;;;10362045;28;20264;-72
2023/12/11 22:07:34;;;;;;;7.40;2.30;;;;;;;;;;10351296;28;20202;-72
2023/12/11 22:12:34;;;;;;;2.97;2.33;;;;;;;;;;10360217;28;20457;-73
2023/12/11 22:17:34;;;;;;;6.63;3.30;;;;;;;;;;10353439;28;20256;-72
2023/12/11 22:22:35;;;;;;;7.27;2.80;;;;;;;;;;10361399;28;21038;-72
2023/12/11 22:27:35;;;;;;;4.47;2.73;;;;;;;;;;10357067;28;20290;-72
2023/12/11 22:32:35;;;;;;;6.50;2.40;;;;;;;;;;10360892;28;20194;-72
2023/12/11 22:37:37;;;;;;;3.63;2.30;;;;;;;;;;10363742;28;20480;-72
2023/12/11 22:42:38;;;;;;;5.17;2.37;;;;;;;;;;10369375;28;20674;-72
2023/12/11 22:47:39;;;;;;;2.73;2.27;;;;;;;;;;10367276;28;20190;-73
2023/12/11 22:52:39;;;;;;;3.00;2.13;;;;;;;;;;10359670;28;20193;-72
2023/12/11 22:57:40;;;;;;;4.87;2.73;;;;;;;;;;10368053;28;20193;-72
2023/12/11 23:02:40;;;;;;;3.77;2.30;;;;;;;;;;10367849;28;20479;-73
2023/12/11 23:07:40;;;;;;;6.53;2.60;;;;;;;;;;10363367;28;20527;-72
2023/12/11 23:12:40;;;;;;;2.60;1.63;;;;;;;;;;10366693;28;20181;-73
2023/12/11 23:17:41;;;;;;;2.07;1.57;;;;;;;;;;10346300;28;20724;-73
2023/12/11 23:22:41;;;;;;;4.00;1.80;;;;;;;;;;10365178;28;20841;-73
2023/12/11 23:27:41;;;;;;;3.63;2.10;;;;;;;;;;10364346;28;20236;-73
2023/12/11 23:32:42;;;;;;;3.97;2.10;;;;;;;;;;10363867;28;20247;-73
2023/12/11 23:37:42;;;;;;;4.77;2.20;;;;;;;;;;10363865;28;20606;-73
2023/12/11 23:42:42;;;;;;;6.13;2.97;;;;;;;;;;10364018;28;20740;-73
2023/12/11 23:47:42;;;;;;;8.00;2.53;;;;;;;;;;10363235;28;20203;-73
2023/12/11 23:52:43;;;;;;;3.70;2.30;;;;;;;;;;10363294;28;20189;-73
2023/12/11 23:57:43;;;;;;;3.60;2.10;;;;;;;;;;10362761;28;20220;-73
